Nepton, Kentucky
Current Conditions -  °F | °C
As of 11:15 PM on Thursday 27 Nov 2014 (Local Time) from KFGX Reporting Station
Overcast Overcast  
Wind Chill: 20°   Ceiling: 3000
Heat Index: 28°   Visibility: 7mi
Dew Point: 23°   Wind: 8mph
Humidity: 79%   Direction: 290°WNW
Pressure: 30.39"   Gusts: NA
Location:  38.4071°N, 83.873°W
Report Text: KFGX 280415Z AUTO 29007KT 7SM OVC030 M02/M05 A3039 RMK AO2 T10201052
Loading
Personal Weather Stations






























Interactive Weather Map New forecast layout! Learn more

10-Day Weather Forecast

Advertisements
Track Severe Weather on mobile